sensor_id;sensor_type;location;lat;lon;timestamp;pressure;altitude;pressure_sealevel;temperature;humidity
47366;BME280;33105;47.964;7.982;2023-06-26T00:02:36;96711.41;;;18.96;54.85
47366;BME280;33105;47.964;7.982;2023-06-26T00:05:37;96706.59;;;19.11;54.06
47366;BME280;33105;47.964;7.982;2023-06-26T00:08:38;96708.16;;;18.94;54.97
47366;BME280;33105;47.964;7.982;2023-06-26T00:11:40;96703.63;;;18.98;54.62
47366;BME280;33105;47.964;7.982;2023-06-26T00:14:41;96705.03;;;19.18;53.45
47366;BME280;33105;47.964;7.982;2023-06-26T00:17:42;96702.69;;;19.12;53.94
47366;BME280;33105;47.964;7.982;2023-06-26T00:20:43;96708.38;;;19.07;54.16
47366;BME280;33105;47.964;7.982;2023-06-26T00:23:45;96716.84;;;19.01;54.73
47366;BME280;33105;47.964;7.982;2023-06-26T00:26:48;96710.72;;;18.91;55.87
47366;BME280;33105;47.964;7.982;2023-06-26T00:29:49;96711.56;;;18.91;56.88
47366;BME280;33105;47.964;7.982;2023-06-26T00:32:51;96713.88;;;18.98;56.24
47366;BME280;33105;47.964;7.982;2023-06-26T00:35:53;96716.19;;;18.82;55.77
47366;BME280;33105;47.964;7.982;2023-06-26T00:38:54;96720.38;;;18.71;57.08
47366;BME280;33105;47.964;7.982;2023-06-26T00:41:55;96724.47;;;18.74;57.83
47366;BME280;33105;47.964;7.982;2023-06-26T00:44:57;96718.13;;;18.73;57.22
47366;BME280;33105;47.964;7.982;2023-06-26T00:47:58;96716.28;;;18.68;57.40
47366;BME280;33105;47.964;7.982;2023-06-26T00:50:59;96722.13;;;18.67;57.19
47366;BME280;33105;47.964;7.982;2023-06-26T00:54:01;96722.25;;;18.62;57.23
47366;BME280;33105;47.964;7.982;2023-06-26T00:57:03;96719.69;;;18.65;56.52
47366;BME280;33105;47.964;7.982;2023-06-26T01:00:05;96721.13;;;18.63;57.45
47366;BME280;33105;47.964;7.982;2023-06-26T01:03:07;96724.28;;;18.56;57.52
47366;BME280;33105;47.964;7.982;2023-06-26T01:06:09;96726.75;;;18.58;57.39
47366;BME280;33105;47.964;7.982;2023-06-26T01:09:12;96723.81;;;18.54;57.76
47366;BME280;33105;47.964;7.982;2023-06-26T01:12:14;96726.28;;;18.56;58.05
47366;BME280;33105;47.964;7.982;2023-06-26T01:15:16;96722.75;;;18.64;57.37
47366;BME280;33105;47.964;7.982;2023-06-26T01:18:17;96719.56;;;18.57;57.72
47366;BME280;33105;47.964;7.982;2023-06-26T01:21:19;96710.81;;;18.55;57.99
47366;BME280;33105;47.964;7.982;2023-06-26T01:24:22;96715.59;;;18.63;57.68
47366;BME280;33105;47.964;7.982;2023-06-26T01:27:30;96714.84;;;18.57;57.90
47366;BME280;33105;47.964;7.982;2023-06-26T01:30:37;96712.69;;;18.68;58.00
47366;BME280;33105;47.964;7.982;2023-06-26T01:33:40;96711.28;;;18.57;58.61
47366;BME280;33105;47.964;7.982;2023-06-26T01:36:41;96698.97;;;18.41;58.96
47366;BME280;33105;47.964;7.982;2023-06-26T01:39:43;96702.16;;;18.56;58.60
47366;BME280;33105;47.964;7.982;2023-06-26T01:42:46;96698.09;;;18.54;59.38
47366;BME280;33105;47.964;7.982;2023-06-26T01:45:50;96698.72;;;18.51;59.26
47366;BME280;33105;47.964;7.982;2023-06-26T01:49:00;96698.53;;;18.47;59.20
47366;BME280;33105;47.964;7.982;2023-06-26T01:55:20;96688.78;;;18.50;59.01
47366;BME280;33105;47.964;7.982;2023-06-26T01:58:24;96697.09;;;18.50;59.25
47366;BME280;33105;47.964;7.982;2023-06-26T02:01:26;96690.53;;;18.46;59.52
47366;BME280;33105;47.964;7.982;2023-06-26T02:04:27;96694.75;;;18.43;59.84
47366;BME280;33105;47.964;7.982;2023-06-26T02:07:28;96696.06;;;18.46;59.43
47366;BME280;33105;47.964;7.982;2023-06-26T02:10:30;96700.91;;;18.40;59.72
47366;BME280;33105;47.964;7.982;2023-06-26T02:13:31;96691.66;;;18.45;59.70
47366;BME280;33105;47.964;7.982;2023-06-26T02:16:32;96700.72;;;18.36;59.98
47366;BME280;33105;47.964;7.982;2023-06-26T02:19:34;96700.59;;;18.42;59.87
47366;BME280;33105;47.964;7.982;2023-06-26T02:22:36;96707.13;;;18.46;59.35
47366;BME280;33105;47.964;7.982;2023-06-26T02:25:37;96704.25;;;18.51;59.35
47366;BME280;33105;47.964;7.982;2023-06-26T02:28:38;96701.69;;;18.54;59.23
47366;BME280;33105;47.964;7.982;2023-06-26T02:31:39;96709.50;;;18.39;60.09
47366;BME280;33105;47.964;7.982;2023-06-26T02:34:40;96708.97;;;18.28;61.11
47366;BME280;33105;47.964;7.982;2023-06-26T02:37:42;96701.63;;;18.32;60.20
47366;BME280;33105;47.964;7.982;2023-06-26T02:40:43;96705.78;;;18.21;60.96
47366;BME280;33105;47.964;7.982;2023-06-26T02:43:46;96713.28;;;18.20;60.74
47366;BME280;33105;47.964;7.982;2023-06-26T02:46:47;96702.84;;;18.40;60.12
47366;BME280;33105;47.964;7.982;2023-06-26T02:49:49;96697.31;;;18.17;60.38
47366;BME280;33105;47.964;7.982;2023-06-26T02:52:50;96705.59;;;18.17;61.15
47366;BME280;33105;47.964;7.982;2023-06-26T02:55:55;96701.09;;;18.21;60.31
47366;BME280;33105;47.964;7.982;2023-06-26T02:58:56;96700.25;;;18.21;60.42
47366;BME280;33105;47.964;7.982;2023-06-26T03:01:58;96704.56;;;18.27;59.96
47366;BME280;33105;47.964;7.982;2023-06-26T03:05:07;96703.97;;;18.16;60.45
47366;BME280;33105;47.964;7.982;2023-06-26T03:08:09;96701.59;;;18.23;60.08
47366;BME280;33105;47.964;7.982;2023-06-26T03:11:11;96702.22;;;18.20;59.92
47366;BME280;33105;47.964;7.982;2023-06-26T03:14:13;96708.78;;;18.47;59.00
47366;BME280;33105;47.964;7.982;2023-06-26T03:17:14;96708.00;;;18.32;59.68
47366;BME280;33105;47.964;7.982;2023-06-26T03:20:18;96700.56;;;18.55;59.20
47366;BME280;33105;47.964;7.982;2023-06-26T03:23:26;96696.81;;;18.38;59.87
47366;BME280;33105;47.964;7.982;2023-06-26T03:26:27;96706.34;;;18.31;59.80
47366;BME280;33105;47.964;7.982;2023-06-26T03:29:30;96700.41;;;18.38;59.24
47366;BME280;33105;47.964;7.982;2023-06-26T03:32:31;96708.19;;;18.36;59.51
47366;BME280;33105;47.964;7.982;2023-06-26T03:35:33;96704.09;;;18.33;60.06
47366;BME280;33105;47.964;7.982;2023-06-26T03:38:35;96712.03;;;18.26;60.13
47366;BME280;33105;47.964;7.982;2023-06-26T03:41:36;96708.44;;;18.26;60.04
47366;BME280;33105;47.964;7.982;2023-06-26T03:44:37;96704.56;;;18.27;60.28
47366;BME280;33105;47.964;7.982;2023-06-26T03:47:40;96709.16;;;18.54;58.96
47366;BME280;33105;47.964;7.982;2023-06-26T03:50:41;96714.53;;;18.36;60.31
47366;BME280;33105;47.964;7.982;2023-06-26T03:53:42;96716.44;;;18.27;61.53
47366;BME280;33105;47.964;7.982;2023-06-26T03:56:43;96715.94;;;18.25;61.23
47366;BME280;33105;47.964;7.982;2023-06-26T03:59:45;96720.31;;;18.26;61.90
47366;BME280;33105;47.964;7.982;2023-06-26T04:02:46;96719.63;;;18.21;62.18
47366;BME280;33105;47.964;7.982;2023-06-26T04:05:48;96727.22;;;18.15;63.08
47366;BME280;33105;47.964;7.982;2023-06-26T04:08:49;96722.81;;;18.14;62.49
47366;BME280;33105;47.964;7.982;2023-06-26T04:11:51;96725.31;;;18.02;63.26
47366;BME280;33105;47.964;7.982;2023-06-26T04:14:52;96731.25;;;17.95;63.38
47366;BME280;33105;47.964;7.982;2023-06-26T04:17:54;96733.72;;;17.83;63.44
47366;BME280;33105;47.964;7.982;2023-06-26T04:21:07;96728.28;;;17.92;63.71
47366;BME280;33105;47.964;7.982;2023-06-26T04:24:09;96730.03;;;17.88;64.98
47366;BME280;33105;47.964;7.982;2023-06-26T04:27:10;96731.44;;;17.99;63.26
47366;BME280;33105;47.964;7.982;2023-06-26T04:30:12;96749.75;;;18.09;62.91
47366;BME280;33105;47.964;7.982;2023-06-26T04:33:13;96744.53;;;18.07;64.92
47366;BME280;33105;47.964;7.982;2023-06-26T04:36:17;96741.06;;;18.01;65.35
47366;BME280;33105;47.964;7.982;2023-06-26T04:39:18;96747.28;;;18.21;64.31
47366;BME280;33105;47.964;7.982;2023-06-26T04:42:20;96741.22;;;18.19;64.54
47366;BME280;33105;47.964;7.982;2023-06-26T04:45:22;96736.53;;;18.19;64.46
47366;BME280;33105;47.964;7.982;2023-06-26T04:48:24;96740.00;;;18.25;65.04
47366;BME280;33105;47.964;7.982;2023-06-26T04:51:25;96744.84;;;18.42;63.21
47366;BME280;33105;47.964;7.982;2023-06-26T04:54:28;96737.78;;;18.35;65.19
47366;BME280;33105;47.964;7.982;2023-06-26T04:57:29;96741.66;;;18.48;64.01
47366;BME280;33105;47.964;7.982;2023-06-26T05:00:30;96744.16;;;18.58;62.90
47366;BME280;33105;47.964;7.982;2023-06-26T05:03:32;96739.75;;;18.71;63.22
47366;BME280;33105;47.964;7.982;2023-06-26T05:06:33;96735.47;;;18.87;61.63
47366;BME280;33105;47.964;7.982;2023-06-26T05:09:35;96733.13;;;19.03;61.28
47366;BME280;33105;47.964;7.982;2023-06-26T05:12:36;96737.94;;;19.20;63.32
47366;BME280;33105;47.964;7.982;2023-06-26T05:15:37;96733.09;;;19.34;62.69
47366;BME280;33105;47.964;7.982;2023-06-26T05:18:39;96721.53;;;19.54;62.90
47366;BME280;33105;47.964;7.982;2023-06-26T05:21:40;96731.91;;;19.97;60.82
47366;BME280;33105;47.964;7.982;2023-06-26T05:24:45;96734.22;;;20.29;58.38
47366;BME280;33105;47.964;7.982;2023-06-26T05:27:48;96730.03;;;20.41;58.92
47366;BME280;33105;47.964;7.982;2023-06-26T05:30:49;96733.97;;;20.74;57.45
47366;BME280;33105;47.964;7.982;2023-06-26T05:33:53;96726.44;;;20.66;60.89
47366;BME280;33105;47.964;7.982;2023-06-26T05:36:58;96727.03;;;21.06;58.93
47366;BME280;33105;47.964;7.982;2023-06-26T05:40:00;96726.34;;;21.18;57.08
47366;BME280;33105;47.964;7.982;2023-06-26T05:43:02;96722.91;;;21.29;56.85
47366;BME280;33105;47.964;7.982;2023-06-26T05:46:04;96731.09;;;21.09;58.01
47366;BME280;33105;47.964;7.982;2023-06-26T05:49:05;96724.88;;;21.29;59.04
47366;BME280;33105;47.964;7.982;2023-06-26T05:52:06;96728.09;;;21.48;59.78
47366;BME280;33105;47.964;7.982;2023-06-26T05:55:08;96727.34;;;21.68;59.84
47366;BME280;33105;47.964;7.982;2023-06-26T05:58:10;96724.88;;;22.05;56.97
47366;BME280;33105;47.964;7.982;2023-06-26T06:01:12;96717.88;;;21.99;57.21
47366;BME280;33105;47.964;7.982;2023-06-26T06:04:13;96724.66;;;22.39;53.89
47366;BME280;33105;47.964;7.982;2023-06-26T06:07:15;96725.88;;;22.51;55.08
47366;BME280;33105;47.964;7.982;2023-06-26T06:10:16;96725.81;;;22.59;56.42
47366;BME280;33105;47.964;7.982;2023-06-26T06:13:17;96733.81;;;22.61;58.91
47366;BME280;33105;47.964;7.982;2023-06-26T06:16:19;96732.19;;;22.81;54.79
47366;BME280;33105;47.964;7.982;2023-06-26T06:19:20;96728.25;;;22.82;57.68
47366;BME280;33105;47.964;7.982;2023-06-26T06:22:21;96725.56;;;23.06;57.13
47366;BME280;33105;47.964;7.982;2023-06-26T06:25:23;96736.66;;;23.27;55.54
47366;BME280;33105;47.964;7.982;2023-06-26T06:28:24;96720.22;;;23.46;53.26
47366;BME280;33105;47.964;7.982;2023-06-26T06:31:25;96713.69;;;23.42;57.84
47366;BME280;33105;47.964;7.982;2023-06-26T06:34:29;96716.50;;;23.42;55.81
47366;BME280;33105;47.964;7.982;2023-06-26T06:37:30;96722.59;;;23.68;56.55
47366;BME280;33105;47.964;7.982;2023-06-26T06:40:32;96726.53;;;23.80;55.80
47366;BME280;33105;47.964;7.982;2023-06-26T06:43:34;96725.16;;;23.73;56.83
47366;BME280;33105;47.964;7.982;2023-06-26T06:46:35;96714.94;;;23.90;56.44
47366;BME280;33105;47.964;7.982;2023-06-26T06:49:36;96711.53;;;24.21;54.13
47366;BME280;33105;47.964;7.982;2023-06-26T06:52:38;96725.16;;;24.10;54.68
47366;BME280;33105;47.964;7.982;2023-06-26T06:55:41;96720.97;;;24.28;54.07
47366;BME280;33105;47.964;7.982;2023-06-26T06:58:42;96733.06;;;24.08;57.15
47366;BME280;33105;47.964;7.982;2023-06-26T07:01:43;96726.31;;;24.21;59.15
47366;BME280;33105;47.964;7.982;2023-06-26T07:04:44;96727.47;;;24.08;59.36
47366;BME280;33105;47.964;7.982;2023-06-26T07:07:45;96724.09;;;24.27;59.29
47366;BME280;33105;47.964;7.982;2023-06-26T07:10:47;96729.06;;;24.58;58.48
47366;BME280;33105;47.964;7.982;2023-06-26T07:13:48;96724.44;;;24.50;58.72
47366;BME280;33105;47.964;7.982;2023-06-26T07:16:49;96728.25;;;24.85;55.83
47366;BME280;33105;47.964;7.982;2023-06-26T07:19:50;96745.81;;;24.58;54.97
47366;BME280;33105;47.964;7.982;2023-06-26T07:22:52;96729.56;;;24.48;54.47
47366;BME280;33105;47.964;7.982;2023-06-26T07:25:54;96737.00;;;24.84;54.55
47366;BME280;33105;47.964;7.982;2023-06-26T07:28:55;96743.91;;;24.74;55.19
47366;BME280;33105;47.964;7.982;2023-06-26T07:31:57;96733.28;;;24.39;52.94
47366;BME280;33105;47.964;7.982;2023-06-26T07:34:59;96736.66;;;24.45;54.18
47366;BME280;33105;47.964;7.982;2023-06-26T07:38:00;96735.84;;;24.45;53.97
47366;BME280;33105;47.964;7.982;2023-06-26T07:41:01;96735.00;;;24.56;51.38
47366;BME280;33105;47.964;7.982;2023-06-26T07:44:03;96733.13;;;24.60;54.01
47366;BME280;33105;47.964;7.982;2023-06-26T07:47:04;96725.59;;;24.76;53.26
47366;BME280;33105;47.964;7.982;2023-06-26T07:50:06;96722.97;;;25.08;55.23
47366;BME280;33105;47.964;7.982;2023-06-26T07:53:07;96720.31;;;24.99;49.98
47366;BME280;33105;47.964;7.982;2023-06-26T07:56:08;96733.13;;;25.00;51.02
47366;BME280;33105;47.964;7.982;2023-06-26T07:59:09;96724.53;;;24.93;49.45
47366;BME280;33105;47.964;7.982;2023-06-26T08:02:11;96722.69;;;25.13;52.25
47366;BME280;33105;47.964;7.982;2023-06-26T08:05:12;96723.66;;;25.33;50.35
47366;BME280;33105;47.964;7.982;2023-06-26T08:08:13;96724.19;;;25.54;48.45
47366;BME280;33105;47.964;7.982;2023-06-26T08:11:14;96716.38;;;25.60;49.66
47366;BME280;33105;47.964;7.982;2023-06-26T08:14:16;96714.75;;;25.74;47.59
47366;BME280;33105;47.964;7.982;2023-06-26T08:17:17;96715.84;;;25.86;47.36
47366;BME280;33105;47.964;7.982;2023-06-26T08:20:19;96719.81;;;25.85;47.47
47366;BME280;33105;47.964;7.982;2023-06-26T08:23:21;96714.94;;;25.82;47.31
47366;BME280;33105;47.964;7.982;2023-06-26T08:26:23;96722.41;;;26.09;49.40
47366;BME280;33105;47.964;7.982;2023-06-26T08:29:24;96712.88;;;25.79;46.44
47366;BME280;33105;47.964;7.982;2023-06-26T08:32:25;96708.25;;;26.18;47.65
47366;BME280;33105;47.964;7.982;2023-06-26T08:35:27;96705.53;;;26.56;47.76
47366;BME280;33105;47.964;7.982;2023-06-26T08:38:28;96701.06;;;26.36;50.53
47366;BME280;33105;47.964;7.982;2023-06-26T08:41:29;96705.53;;;26.21;44.99
47366;BME280;33105;47.964;7.982;2023-06-26T08:44:30;96696.91;;;26.46;45.05
47366;BME280;33105;47.964;7.982;2023-06-26T08:47:34;96697.44;;;26.70;46.36
47366;BME280;33105;47.964;7.982;2023-06-26T08:50:38;96705.31;;;26.65;44.44
47366;BME280;33105;47.964;7.982;2023-06-26T08:56:55;96703.84;;;26.90;44.68
47366;BME280;33105;47.964;7.982;2023-06-26T08:59:58;96707.63;;;27.17;46.31
47366;BME280;33105;47.964;7.982;2023-06-26T09:03:01;96708.41;;;27.37;43.90
47366;BME280;33105;47.964;7.982;2023-06-26T09:06:04;96717.06;;;27.51;43.32
47366;BME280;33105;47.964;7.982;2023-06-26T09:09:05;96712.34;;;27.55;44.88
47366;BME280;33105;47.964;7.982;2023-06-26T09:12:08;96714.72;;;27.11;46.16
47366;BME280;33105;47.964;7.982;2023-06-26T09:15:09;96723.19;;;27.34;44.19
47366;BME280;33105;47.964;7.982;2023-06-26T09:18:11;96726.28;;;27.29;45.99
47366;BME280;33105;47.964;7.982;2023-06-26T09:21:13;96724.09;;;27.19;45.70
47366;BME280;33105;47.964;7.982;2023-06-26T09:24:16;96726.84;;;26.96;46.97
47366;BME280;33105;47.964;7.982;2023-06-26T09:27:17;96734.53;;;26.64;46.18
47366;BME280;33105;47.964;7.982;2023-06-26T09:30:19;96732.16;;;26.47;46.63
47366;BME280;33105;47.964;7.982;2023-06-26T09:33:21;96743.69;;;26.29;47.24
47366;BME280;33105;47.964;7.982;2023-06-26T09:36:22;96742.91;;;26.13;48.87
47366;BME280;33105;47.964;7.982;2023-06-26T09:39:24;96745.09;;;26.20;48.74
47366;BME280;33105;47.964;7.982;2023-06-26T09:42:25;96754.84;;;26.10;48.66
47366;BME280;33105;47.964;7.982;2023-06-26T09:45:27;96757.75;;;26.14;47.87
47366;BME280;33105;47.964;7.982;2023-06-26T09:48:28;96760.19;;;25.84;48.70
47366;BME280;33105;47.964;7.982;2023-06-26T09:51:41;96765.56;;;25.61;48.33
47366;BME280;33105;47.964;7.982;2023-06-26T09:54:43;96764.28;;;25.42;50.00
47366;BME280;33105;47.964;7.982;2023-06-26T09:57:48;96771.84;;;25.70;50.23
47366;BME280;33105;47.964;7.982;2023-06-26T10:00:50;96767.31;;;25.97;49.61
47366;BME280;33105;47.964;7.982;2023-06-26T10:03:54;96769.03;;;26.33;50.83
47366;BME280;33105;47.964;7.982;2023-06-26T10:06:56;96783.56;;;26.38;48.83
47366;BME280;33105;47.964;7.982;2023-06-26T10:09:57;96783.47;;;26.19;49.87
47366;BME280;33105;47.964;7.982;2023-06-26T10:13:04;96787.34;;;25.99;50.54
47366;BME280;33105;47.964;7.982;2023-06-26T10:16:10;96796.66;;;26.19;49.62
47366;BME280;33105;47.964;7.982;2023-06-26T10:19:13;96807.84;;;26.03;49.43
47366;BME280;33105;47.964;7.982;2023-06-26T10:22:17;96807.94;;;26.06;49.79
47366;BME280;33105;47.964;7.982;2023-06-26T10:25:19;96806.06;;;25.95;50.08
47366;BME280;33105;47.964;7.982;2023-06-26T10:28:21;96812.75;;;26.06;50.16
47366;BME280;33105;47.964;7.982;2023-06-26T10:31:26;96813.13;;;26.20;50.28
47366;BME280;33105;47.964;7.982;2023-06-26T10:34:27;96817.06;;;25.88;51.51
47366;BME280;33105;47.964;7.982;2023-06-26T10:38:02;96831.06;;;26.03;49.14
47366;BME280;33105;47.964;7.982;2023-06-26T10:41:12;96818.88;;;25.96;50.96
47366;BME280;33105;47.964;7.982;2023-06-26T10:44:17;96822.69;;;26.19;54.42
47366;BME280;33105;47.964;7.982;2023-06-26T10:47:31;96814.13;;;26.43;51.11
47366;BME280;33105;47.964;7.982;2023-06-26T10:50:36;96822.75;;;26.54;54.29
47366;BME280;33105;47.964;7.982;2023-06-26T10:53:38;96812.91;;;26.60;52.88
47366;BME280;33105;47.964;7.982;2023-06-26T10:56:46;96821.03;;;27.00;51.88
47366;BME280;33105;47.964;7.982;2023-06-26T10:59:47;96824.06;;;26.41;50.23
47366;BME280;33105;47.964;7.982;2023-06-26T11:02:49;96814.88;;;26.60;51.54
47366;BME280;33105;47.964;7.982;2023-06-26T11:06:09;96820.03;;;27.08;50.41
47366;BME280;33105;47.964;7.982;2023-06-26T11:09:23;96813.53;;;26.69;49.43
47366;BME280;33105;47.964;7.982;2023-06-26T11:15:37;96812.50;;;26.77;50.81
47366;BME280;33105;47.964;7.982;2023-06-26T11:18:38;96807.91;;;27.04;50.08
47366;BME280;33105;47.964;7.982;2023-06-26T11:21:40;96801.28;;;27.13;50.76
47366;BME280;33105;47.964;7.982;2023-06-26T11:24:42;96802.63;;;27.19;49.74
47366;BME280;33105;47.964;7.982;2023-06-26T11:27:44;96803.72;;;27.14;48.65
47366;BME280;33105;47.964;7.982;2023-06-26T11:30:45;96808.69;;;27.21;48.38
47366;BME280;33105;47.964;7.982;2023-06-26T11:33:47;96798.28;;;27.21;49.00
47366;BME280;33105;47.964;7.982;2023-06-26T11:36:48;96804.16;;;27.16;48.77
47366;BME280;33105;47.964;7.982;2023-06-26T11:39:50;96812.56;;;26.81;49.83
47366;BME280;33105;47.964;7.982;2023-06-26T11:42:53;96816.03;;;27.48;49.54
47366;BME280;33105;47.964;7.982;2023-06-26T11:45:55;96821.16;;;27.62;49.14
47366;BME280;33105;47.964;7.982;2023-06-26T11:48:57;96821.88;;;28.20;51.69
47366;BME280;33105;47.964;7.982;2023-06-26T11:51:58;96827.06;;;27.99;48.35
47366;BME280;33105;47.964;7.982;2023-06-26T11:54:59;96814.13;;;27.71;47.81
47366;BME280;33105;47.964;7.982;2023-06-26T11:58:01;96811.31;;;27.33;49.32
47366;BME280;33105;47.964;7.982;2023-06-26T12:01:02;96811.25;;;27.29;50.30
47366;BME280;33105;47.964;7.982;2023-06-26T12:04:05;96809.72;;;27.70;48.71
47366;BME280;33105;47.964;7.982;2023-06-26T12:07:08;96804.09;;;27.70;49.78
47366;BME280;33105;47.964;7.982;2023-06-26T12:10:11;96809.22;;;27.88;47.89
47366;BME280;33105;47.964;7.982;2023-06-26T12:13:12;96810.31;;;27.60;48.41
47366;BME280;33105;47.964;7.982;2023-06-26T12:16:14;96805.56;;;27.26;49.17
47366;BME280;33105;47.964;7.982;2023-06-26T12:19:15;96808.84;;;26.58;49.65
47366;BME280;33105;47.964;7.982;2023-06-26T12:22:18;96811.50;;;26.19;51.12
47366;BME280;33105;47.964;7.982;2023-06-26T12:25:24;96814.16;;;26.00;51.51
47366;BME280;33105;47.964;7.982;2023-06-26T12:28:25;96819.50;;;25.73;52.33
47366;BME280;33105;47.964;7.982;2023-06-26T12:31:27;96820.94;;;25.67;51.80
47366;BME280;33105;47.964;7.982;2023-06-26T12:34:31;96831.75;;;25.41;53.15
47366;BME280;33105;47.964;7.982;2023-06-26T12:37:36;96828.41;;;25.51;51.67
47366;BME280;33105;47.964;7.982;2023-06-26T12:40:44;96826.41;;;25.36;53.62
47366;BME280;33105;47.964;7.982;2023-06-26T12:43:46;96829.34;;;25.55;51.61
47366;BME280;33105;47.964;7.982;2023-06-26T12:46:49;96830.25;;;25.59;51.90
47366;BME280;33105;47.964;7.982;2023-06-26T12:49:51;96822.66;;;25.88;53.79
47366;BME280;33105;47.964;7.982;2023-06-26T12:52:53;96816.53;;;25.98;53.61
47366;BME280;33105;47.964;7.982;2023-06-26T12:55:54;96813.84;;;26.33;51.66
47366;BME280;33105;47.964;7.982;2023-06-26T12:58:55;96812.72;;;26.53;53.59
47366;BME280;33105;47.964;7.982;2023-06-26T13:01:57;96808.59;;;26.16;52.94
47366;BME280;33105;47.964;7.982;2023-06-26T13:04:58;96822.97;;;26.30;51.58
47366;BME280;33105;47.964;7.982;2023-06-26T13:07:59;96829.72;;;26.29;52.11
47366;BME280;33105;47.964;7.982;2023-06-26T13:11:01;96812.41;;;26.39;52.91
47366;BME280;33105;47.964;7.982;2023-06-26T13:14:02;96813.22;;;26.39;50.85
47366;BME280;33105;47.964;7.982;2023-06-26T13:17:04;96816.47;;;26.41;52.41
47366;BME280;33105;47.964;7.982;2023-06-26T13:20:06;96812.28;;;26.04;52.96
47366;BME280;33105;47.964;7.982;2023-06-26T13:23:09;96807.84;;;26.03;52.34
47366;BME280;33105;47.964;7.982;2023-06-26T13:26:11;96804.78;;;26.24;50.83
47366;BME280;33105;47.964;7.982;2023-06-26T13:29:12;96808.19;;;26.64;50.62
47366;BME280;33105;47.964;7.982;2023-06-26T13:32:13;96801.78;;;26.48;50.62
47366;BME280;33105;47.964;7.982;2023-06-26T13:35:14;96797.03;;;26.33;49.75
47366;BME280;33105;47.964;7.982;2023-06-26T13:38:16;96792.34;;;26.21;49.12
47366;BME280;33105;47.964;7.982;2023-06-26T13:41:17;96796.84;;;26.10;49.08
47366;BME280;33105;47.964;7.982;2023-06-26T13:44:20;96797.75;;;26.30;51.47
47366;BME280;33105;47.964;7.982;2023-06-26T13:47:21;96791.66;;;26.59;50.18
47366;BME280;33105;47.964;7.982;2023-06-26T13:50:23;96783.88;;;26.68;48.90
47366;BME280;33105;47.964;7.982;2023-06-26T13:53:24;96797.06;;;26.68;47.04
47366;BME280;33105;47.964;7.982;2023-06-26T13:56:25;96787.63;;;26.41;46.66
47366;BME280;33105;47.964;7.982;2023-06-26T13:59:27;96793.41;;;25.85;47.77
47366;BME280;33105;47.964;7.982;2023-06-26T14:02:28;96792.84;;;25.80;47.37
47366;BME280;33105;47.964;7.982;2023-06-26T14:05:30;96793.56;;;25.76;49.17
47366;BME280;33105;47.964;7.982;2023-06-26T14:08:31;96786.75;;;26.21;50.66
47366;BME280;33105;47.964;7.982;2023-06-26T14:11:33;96787.72;;;26.45;50.55
47366;BME280;33105;47.964;7.982;2023-06-26T14:14:34;96796.72;;;26.54;48.29
47366;BME280;33105;47.964;7.982;2023-06-26T14:17:36;96789.78;;;26.83;46.60
47366;BME280;33105;47.964;7.982;2023-06-26T14:20:38;96788.72;;;27.06;48.43
47366;BME280;33105;47.964;7.982;2023-06-26T14:23:39;96794.56;;;26.63;46.62
47366;BME280;33105;47.964;7.982;2023-06-26T14:26:40;96788.38;;;26.38;46.17
47366;BME280;33105;47.964;7.982;2023-06-26T14:29:41;96788.28;;;26.34;45.72
47366;BME280;33105;47.964;7.982;2023-06-26T14:32:43;96797.31;;;26.78;47.59
47366;BME280;33105;47.964;7.982;2023-06-26T14:35:44;96780.16;;;27.38;45.42
47366;BME280;33105;47.964;7.982;2023-06-26T14:38:45;96785.28;;;26.78;45.20
47366;BME280;33105;47.964;7.982;2023-06-26T14:41:47;96786.09;;;26.43;45.04
47366;BME280;33105;47.964;7.982;2023-06-26T14:44:48;96789.53;;;26.21;49.08
47366;BME280;33105;47.964;7.982;2023-06-26T14:47:51;96793.69;;;25.96;46.13
47366;BME280;33105;47.964;7.982;2023-06-26T14:50:52;96794.94;;;25.83;45.86
47366;BME280;33105;47.964;7.982;2023-06-26T14:53:53;96790.78;;;25.76;46.27
47366;BME280;33105;47.964;7.982;2023-06-26T14:56:55;96791.81;;;25.56;44.37
47366;BME280;33105;47.964;7.982;2023-06-26T14:59:56;96784.50;;;25.95;43.61
47366;BME280;33105;47.964;7.982;2023-06-26T15:02:57;96785.38;;;26.47;46.14
47366;BME280;33105;47.964;7.982;2023-06-26T15:05:59;96792.19;;;26.65;43.32
47366;BME280;33105;47.964;7.982;2023-06-26T15:09:00;96784.56;;;26.30;44.13
47366;BME280;33105;47.964;7.982;2023-06-26T15:12:03;96785.56;;;26.22;45.56
47366;BME280;33105;47.964;7.982;2023-06-26T15:15:04;96789.72;;;26.13;44.75
47366;BME280;33105;47.964;7.982;2023-06-26T15:18:05;96791.97;;;26.07;44.66
47366;BME280;33105;47.964;7.982;2023-06-26T15:21:07;96781.03;;;26.02;42.98
47366;BME280;33105;47.964;7.982;2023-06-26T15:24:08;96792.03;;;25.79;44.50
47366;BME280;33105;47.964;7.982;2023-06-26T15:27:10;96791.22;;;25.63;44.15
47366;BME280;33105;47.964;7.982;2023-06-26T15:30:11;96790.38;;;25.62;43.44
47366;BME280;33105;47.964;7.982;2023-06-26T15:33:13;96787.16;;;25.76;44.97
47366;BME280;33105;47.964;7.982;2023-06-26T15:36:14;96790.38;;;25.62;43.87
47366;BME280;33105;47.964;7.982;2023-06-26T15:39:15;96781.41;;;25.85;44.21
47366;BME280;33105;47.964;7.982;2023-06-26T15:42:17;96777.34;;;25.98;44.13
47366;BME280;33105;47.964;7.982;2023-06-26T15:45:18;96778.78;;;26.07;42.93
47366;BME280;33105;47.964;7.982;2023-06-26T15:48:19;96773.28;;;26.11;42.13
47366;BME280;33105;47.964;7.982;2023-06-26T15:51:20;96777.78;;;26.31;43.06
47366;BME280;33105;47.964;7.982;2023-06-26T15:54:21;96776.97;;;26.15;42.49
47366;BME280;33105;47.964;7.982;2023-06-26T15:57:23;96784.13;;;25.97;42.22
47366;BME280;33105;47.964;7.982;2023-06-26T16:00:24;96782.84;;;25.94;41.65
47366;BME280;33105;47.964;7.982;2023-06-26T16:03:26;96787.72;;;25.82;42.94
47366;BME280;33105;47.964;7.982;2023-06-26T16:06:27;96777.78;;;26.00;41.43
47366;BME280;33105;47.964;7.982;2023-06-26T16:09:28;96783.28;;;25.81;44.56
47366;BME280;33105;47.964;7.982;2023-06-26T16:12:29;96789.63;;;25.50;43.17
47366;BME280;33105;47.964;7.982;2023-06-26T16:15:30;96787.13;;;25.60;43.46